createdAt,value
2018-04-10T00:02:13.274Z,95.20
2018-04-10T00:04:40.735Z,94.90
2018-04-10T00:07:08.265Z,94.90
2018-04-10T00:09:35.778Z,94.90
2018-04-10T00:12:03.242Z,94.60
2018-04-10T00:14:30.707Z,94.40
2018-04-10T00:16:58.160Z,94.40
2018-04-10T00:19:25.623Z,94.30
2018-04-10T00:21:53.085Z,94.30
2018-04-10T00:24:20.564Z,94.20
2018-04-10T00:26:48.032Z,94.30
2018-04-10T00:29:15.484Z,94.30
2018-04-10T00:31:43.083Z,94.30
2018-04-10T00:34:10.618Z,94.30
2018-04-10T00:36:38.085Z,94.30
2018-04-10T00:39:05.564Z,94.20
2018-04-10T00:41:33.023Z,94.20
2018-04-10T00:44:00.486Z,94.10
2018-04-10T01:03:44.474Z,94.30
2018-04-10T01:06:11.931Z,94.40
2018-04-10T01:08:39.492Z,94.50
2018-04-10T01:28:25.634Z,94.70
2018-04-10T01:30:53.168Z,95.00
2018-04-10T01:33:20.637Z,95.30
2018-04-10T01:35:48.458Z,95.30
2018-04-10T01:38:16.006Z,95.60
2018-04-10T01:40:43.471Z,95.60
2018-04-10T02:00:27.499Z,96.20
2018-04-10T02:02:54.964Z,96.20
2018-04-10T02:05:22.464Z,96.10
2018-04-10T02:07:50.018Z,96.10
2018-04-10T02:10:17.514Z,95.90
2018-04-10T02:12:44.976Z,96.30
2018-04-10T02:15:12.545Z,96.60
2018-04-10T02:34:56.518Z,96.60
2018-04-10T02:37:24.056Z,96.60
2018-04-10T02:39:51.552Z,96.60
2018-04-10T02:42:19.025Z,96.80
2018-04-10T02:44:46.511Z,96.80
2018-04-10T02:47:13.989Z,97.00
2018-04-10T02:49:41.551Z,97.00
2018-04-10T02:52:09.011Z,97.00
2018-04-10T02:54:36.503Z,96.80
2018-04-10T03:14:19.439Z,97.30
2018-04-10T03:16:46.910Z,97.10
2018-04-10T03:19:14.377Z,96.90
2018-04-10T03:21:41.902Z,97.00
2018-04-10T03:24:09.472Z,97.20
2018-04-10T03:26:37.012Z,97.40
2018-04-10T03:29:04.466Z,97.70
2018-04-10T03:31:32.004Z,97.70
2018-04-10T03:33:59.464Z,97.30
2018-04-10T03:53:45.080Z,97.50
2018-04-10T03:56:12.595Z,97.80
2018-04-10T03:58:40.078Z,98.00
2018-04-10T04:01:07.561Z,98.10
2018-04-10T04:03:35.041Z,98.20
2018-04-10T04:06:02.503Z,98.40
2018-04-10T04:08:30.018Z,98.30
2018-04-10T04:10:57.574Z,98.20
2018-04-10T04:13:26.003Z,98.40
2018-04-10T04:15:53.475Z,98.40
2018-04-10T04:18:32.915Z,98.60
2018-04-10T04:21:12.174Z,98.60
2018-04-10T04:23:39.676Z,98.60
2018-04-10T04:26:07.389Z,98.40
2018-04-10T04:45:51.506Z,98.10
2018-04-10T05:05:37.180Z,97.80
2018-04-10T05:08:04.672Z,97.70
2018-04-10T05:10:32.244Z,97.80
2018-04-10T05:12:59.793Z,97.90
2018-04-10T05:15:27.301Z,97.90
2018-04-10T05:17:54.820Z,97.70
2018-04-10T05:20:22.294Z,97.80
2018-04-10T05:40:05.603Z,97.70
2018-04-10T05:42:33.268Z,97.80
2018-04-10T05:45:01.500Z,97.70
2018-04-10T05:47:28.985Z,97.80
2018-04-10T05:49:56.692Z,97.50
2018-04-10T05:52:24.152Z,97.40
2018-04-10T05:54:51.618Z,97.50
2018-04-10T05:57:19.087Z,97.10
2018-04-10T05:59:46.569Z,97.00
2018-04-10T06:02:14.161Z,96.90
2018-04-10T06:04:42.126Z,96.60
2018-04-10T06:07:10.690Z,96.40
2018-04-10T06:09:38.224Z,96.40
2018-04-10T06:12:05.816Z,96.20
2018-04-10T06:14:33.308Z,96.00
2018-04-10T06:17:00.838Z,95.70
2018-04-10T06:19:28.318Z,95.70
2018-04-10T06:21:55.844Z,95.40
2018-04-10T06:24:23.424Z,95.10
2018-04-10T06:26:51.011Z,94.80
2018-04-10T06:29:18.580Z,94.70
2018-04-10T06:31:46.057Z,94.50
2018-04-10T06:34:13.590Z,94.80
2018-04-10T06:36:41.290Z,94.70
2018-04-10T06:39:08.772Z,94.60
2018-04-10T06:41:36.251Z,94.70
2018-04-10T06:44:03.816Z,95.30
2018-04-10T07:03:47.247Z,93.40
2018-04-10T07:06:14.823Z,92.50
2018-04-10T07:08:43.009Z,91.90
2018-04-10T07:11:10.680Z,92.20
2018-04-10T07:13:38.218Z,91.20
2018-04-10T07:16:15.044Z,90.30
2018-04-10T07:18:42.509Z,89.80
2018-04-10T07:21:09.972Z,88.80
2018-04-10T07:23:37.447Z,86.10
2018-04-10T07:26:05.779Z,85.00
2018-04-10T07:28:33.512Z,84.50
2018-04-10T07:31:00.993Z,81.80
2018-04-10T07:33:28.501Z,78.30
2018-04-10T07:35:55.981Z,69.70
2018-04-10T07:38:23.454Z,65.40
2018-04-10T07:40:50.913Z,56.40
2018-04-10T07:43:18.389Z,51.10
2018-04-10T07:45:45.878Z,49.10
2018-04-10T07:48:13.340Z,44.70
2018-04-10T07:50:40.819Z,44.00
2018-04-10T07:53:08.291Z,40.80
2018-04-10T07:55:35.802Z,38.70
2018-04-10T07:58:03.730Z,35.40
2018-04-10T08:00:32.347Z,36.40
2018-04-10T08:03:01.259Z,35.20
2018-04-10T08:05:28.776Z,33.20
2018-04-10T08:07:56.281Z,32.60
2018-04-10T08:10:23.781Z,30.90
2018-04-10T08:12:51.249Z,30.60
2018-04-10T08:15:18.726Z,28.30
2018-04-10T08:17:46.187Z,28.20
2018-04-10T08:20:13.710Z,28.50
2018-04-10T08:22:41.556Z,28.70
2018-04-10T08:25:09.016Z,29.10
2018-04-10T08:27:37.449Z,27.90
2018-04-10T08:30:04.924Z,28.10
2018-04-10T08:44:03.434Z,27.00
2018-04-10T08:46:31.051Z,28.20
2018-04-10T08:48:58.546Z,26.70
2018-04-10T08:51:26.097Z,26.70
2018-04-10T08:53:54.003Z,27.60
2018-04-10T08:56:21.472Z,27.30
2018-04-10T08:58:48.977Z,26.80
2018-04-10T09:01:16.505Z,25.80
2018-04-10T09:03:44.032Z,24.50
2018-04-10T09:06:11.532Z,24.70
2018-04-10T09:08:40.050Z,24.50
2018-04-10T09:11:07.808Z,25.60
2018-04-10T09:13:35.283Z,27.00
2018-04-10T09:16:02.770Z,27.50
2018-04-10T09:18:30.256Z,27.80
2018-04-10T09:20:57.806Z,27.70
2018-04-10T09:23:25.272Z,28.20
2018-04-10T09:25:52.755Z,27.20
2018-04-10T09:28:20.231Z,26.90
2018-04-10T09:30:47.700Z,26.60
2018-04-10T09:33:15.297Z,27.30
2018-04-10T09:35:42.771Z,25.90
2018-04-10T09:38:11.104Z,26.70
2018-04-10T09:40:39.077Z,25.60
2018-04-10T09:43:06.739Z,24.30
2018-04-10T09:45:34.207Z,25.40
2018-04-10T09:48:02.131Z,25.40
2018-04-10T09:50:29.917Z,25.30
2018-04-10T09:52:57.483Z,24.80
2018-04-10T09:55:24.956Z,24.30
2018-04-10T09:57:52.651Z,24.40
2018-04-10T10:00:25.895Z,23.70
2018-04-10T10:02:53.409Z,26.20
2018-04-10T10:05:20.888Z,26.80
2018-04-10T10:07:48.360Z,26.80
2018-04-10T10:10:15.891Z,25.90
2018-04-10T10:12:43.355Z,25.80
2018-04-10T10:15:10.901Z,26.50
2018-04-10T10:17:38.452Z,24.80
2018-04-10T10:20:08.140Z,27.80
2018-04-10T10:22:35.696Z,27.20
2018-04-10T10:25:03.173Z,26.40
2018-04-10T10:27:30.647Z,26.10
2018-04-10T10:29:58.128Z,26.40
2018-04-10T10:32:25.600Z,27.50
2018-04-10T10:34:53.129Z,28.10
2018-04-10T10:37:20.652Z,28.20
2018-04-10T10:39:48.138Z,31.10
2018-04-10T10:42:15.619Z,32.50
2018-04-10T10:44:43.293Z,29.50
2018-04-10T10:47:10.915Z,34.10
2018-04-10T10:49:38.381Z,29.70
2018-04-10T10:52:05.854Z,30.10
2018-04-10T10:54:33.323Z,31.10
2018-04-10T10:57:00.791Z,32.40
2018-04-10T10:59:28.468Z,32.70
2018-04-10T11:01:56.070Z,33.00
2018-04-10T11:04:23.669Z,35.80
2018-04-10T11:06:51.190Z,36.20
2018-04-10T11:09:18.666Z,32.10
2018-04-10T11:11:46.200Z,32.50
2018-04-10T11:14:13.671Z,35.90
2018-04-10T11:16:41.159Z,33.10
2018-04-10T11:19:08.628Z,33.80
2018-04-10T11:21:36.127Z,33.60
2018-04-10T11:24:03.591Z,34.30
2018-04-10T11:26:31.076Z,33.50
2018-04-10T11:28:59.038Z,33.60
2018-04-10T11:31:26.647Z,33.10
2018-04-10T11:33:54.925Z,32.40
2018-04-10T11:36:22.440Z,30.80
2018-04-10T11:38:49.906Z,31.40
2018-04-10T11:41:17.442Z,32.10
2018-04-10T11:43:45.001Z,32.30
2018-04-10T11:46:12.464Z,31.70
2018-04-10T11:48:39.932Z,30.70
2018-04-10T11:51:07.400Z,32.30
2018-04-10T11:53:34.872Z,30.30
2018-04-10T11:56:02.527Z,31.20
2018-04-10T11:58:30.007Z,31.10
2018-04-10T12:00:57.535Z,30.10
2018-04-10T12:03:25.039Z,30.10
2018-04-10T12:05:52.623Z,29.90
2018-04-10T12:08:20.102Z,30.40
2018-04-10T12:10:47.588Z,29.60
2018-04-10T12:13:15.137Z,29.80
2018-04-10T12:15:42.681Z,28.60
2018-04-10T12:18:10.162Z,29.10
2018-04-10T12:37:55.725Z,29.60
2018-04-10T12:40:23.222Z,29.00
2018-04-10T12:42:50.710Z,27.40
2018-04-10T12:45:18.192Z,28.80
2018-04-10T12:47:45.652Z,28.80
2018-04-10T12:50:13.117Z,27.80
2018-04-10T12:52:40.597Z,27.10
2018-04-10T12:55:08.058Z,27.80
2018-04-10T12:57:35.726Z,27.20
2018-04-10T13:00:03.581Z,26.70
2018-04-10T13:02:31.128Z,24.80
2018-04-10T13:04:58.663Z,25.90
2018-04-10T13:07:26.804Z,27.10
2018-04-10T13:09:55.180Z,27.30
2018-04-10T13:12:23.056Z,27.90
2018-04-10T13:14:50.596Z,28.10
2018-04-10T13:17:18.128Z,28.80
2018-04-10T13:19:45.704Z,28.50
2018-04-10T13:22:13.188Z,28.50
2018-04-10T13:24:42.898Z,28.90
2018-04-10T13:27:11.309Z,31.70
2018-04-10T14:27:17.809Z,33.60
2018-04-10T14:29:45.432Z,33.60
2018-04-10T14:32:12.943Z,34.20
2018-04-10T14:34:41.368Z,33.80
2018-04-10T14:37:08.852Z,33.80
2018-04-10T14:39:59.344Z,33.50
2018-04-10T14:42:26.810Z,34.90
2018-04-10T14:44:54.343Z,34.50
2018-04-10T14:50:15.421Z,39.40
2018-04-10T14:52:42.892Z,39.30
2018-04-10T14:55:10.377Z,40.50
2018-04-10T15:14:56.449Z,39.00
2018-04-10T15:17:24.070Z,38.60
2018-04-10T15:19:51.540Z,38.80
2018-04-10T15:22:19.035Z,38.20
2018-04-10T15:24:46.517Z,38.30
2018-04-10T15:27:13.995Z,37.00
2018-04-10T15:29:41.511Z,36.40
2018-04-10T15:32:09.064Z,36.10
2018-04-10T15:34:36.522Z,36.30
2018-04-10T15:54:20.100Z,43.20
2018-04-10T15:56:47.603Z,41.30
2018-04-10T15:59:15.075Z,42.10
2018-04-10T16:19:01.911Z,47.40
2018-04-10T16:24:43.683Z,46.90
2018-04-10T16:27:11.480Z,47.80
2018-04-10T16:29:39.053Z,49.20
2018-04-10T16:49:21.380Z,46.80
2018-04-10T17:09:06.551Z,49.80
2018-04-10T17:11:34.012Z,50.80
2018-04-10T17:14:01.583Z,51.60
2018-04-10T17:16:29.307Z,51.70
2018-04-10T17:18:56.808Z,52.20
2018-04-10T17:21:24.303Z,51.60
2018-04-10T17:23:52.071Z,51.50
2018-04-10T17:43:35.796Z,56.30
2018-04-10T18:03:20.052Z,59.30
2018-04-10T18:23:05.719Z,65.70
2018-04-10T18:25:33.237Z,66.50
2018-04-10T18:28:00.810Z,67.70
2018-04-10T18:30:28.415Z,69.20
2018-04-10T18:50:12.548Z,75.00
2018-04-10T18:52:40.160Z,75.30
2018-04-10T18:55:07.907Z,75.40
2018-04-10T18:57:35.370Z,75.70
2018-04-10T19:00:02.852Z,76.60
2018-04-10T19:19:44.880Z,82.10
2018-04-10T19:22:12.406Z,82.40
2018-04-10T19:24:40.068Z,82.30
2018-04-10T19:27:07.586Z,82.70
2018-04-10T19:29:35.055Z,83.80
2018-04-10T19:32:02.532Z,84.70
2018-04-10T19:34:30.248Z,85.30
2018-04-10T19:37:00.035Z,86.30
2018-04-10T19:39:27.733Z,85.10
2018-04-10T19:41:55.201Z,82.50
2018-04-10T19:44:24.647Z,82.20
2018-04-10T19:46:52.166Z,81.00
2018-04-10T19:49:20.216Z,80.10
2018-04-10T20:09:04.271Z,78.30
2018-04-10T20:11:33.887Z,78.30
2018-04-10T20:14:01.828Z,79.00
2018-04-10T20:16:34.900Z,79.10
2018-04-10T20:19:02.377Z,79.20
2018-04-10T20:38:47.506Z,81.10
2018-04-10T20:41:15.022Z,81.20
2018-04-10T20:43:42.498Z,81.80
2018-04-10T20:46:09.980Z,82.90
2018-04-10T20:48:37.434Z,83.00
2018-04-10T20:51:04.891Z,83.50
2018-04-10T20:53:32.353Z,84.00
2018-04-10T20:55:59.817Z,84.80
2018-04-10T20:58:27.280Z,84.80
2018-04-10T21:00:54.791Z,85.60
2018-04-10T21:20:38.387Z,86.00
2018-04-10T21:23:05.991Z,86.40
2018-04-10T21:25:33.498Z,86.80
2018-04-10T21:28:00.971Z,86.70
2018-04-10T21:30:28.428Z,86.60
2018-04-10T21:32:55.968Z,86.70
2018-04-10T21:35:23.542Z,86.70
2018-04-10T21:37:51.076Z,86.70
2018-04-10T21:40:18.769Z,86.70
2018-04-10T21:42:51.772Z,86.80
2018-04-10T21:45:20.024Z,86.90
2018-04-10T21:47:47.488Z,86.90
2018-04-10T21:50:14.953Z,86.50
2018-04-10T21:52:42.498Z,86.20
2018-04-10T21:55:09.990Z,85.90
2018-04-10T22:14:55.193Z,83.90
2018-04-10T22:17:22.674Z,84.20
2018-04-10T22:19:50.139Z,84.50
2018-04-10T22:22:17.599Z,85.00
2018-04-10T22:24:45.082Z,85.10
2018-04-10T22:27:12.606Z,85.10
2018-04-10T22:29:40.059Z,86.00
2018-04-10T22:32:07.532Z,86.50
2018-04-10T22:34:34.960Z,86.70
2018-04-10T22:37:02.416Z,87.20
2018-04-10T22:39:29.892Z,87.90
2018-04-10T22:41:57.350Z,88.50
2018-04-10T22:44:24.818Z,87.40
2018-04-10T23:04:11.356Z,87.70
2018-04-10T23:06:38.824Z,87.70
2018-04-10T23:09:06.296Z,88.20
2018-04-10T23:11:33.760Z,88.80
2018-04-10T23:14:01.227Z,89.80
2018-04-10T23:16:28.696Z,89.80
2018-04-10T23:18:56.167Z,89.70
2018-04-10T23:21:23.729Z,90.40
2018-04-10T23:23:51.288Z,91.20
2018-04-10T23:26:18.915Z,90.70
2018-04-10T23:28:46.416Z,90.20
2018-04-10T23:31:13.898Z,89.20
2018-04-10T23:33:41.403Z,88.80
2018-04-10T23:36:08.871Z,90.20
2018-04-10T23:38:36.333Z,91.20
2018-04-10T23:41:03.835Z,90.90
2018-04-10T23:43:31.295Z,91.30
2018-04-10T23:45:58.765Z,91.50
2018-04-10T23:48:26.226Z,92.20
2018-04-10T23:50:53.720Z,92.70
2018-04-10T23:53:21.979Z,93.60
2018-04-10T23:55:49.435Z,93.60
2018-04-10T23:58:17.084Z,94.30
